Time;durP1;ratioP1;P1;durP2;ratioP2;P2;SDS_P1;SDS_P2;PMS_P1;PMS_P2;Temp;Humidity;BMP_temperature;BMP_pressure;BME280_temperature;BME280_humidity;BME280_pressure;Samples;Min_cycle;Max_cycle;Signal;HPM_P1;HPM_P2
2022/01/25 00:26:59;;;;;;;14.57;9.77;;;;;;;4.55;87.07;102581.75;5023654;28;20030;-21
2022/01/25 00:29:34;;;;;;;14.15;9.65;;;;;;;4.54;87.83;102580.88;5027765;28;20116;-21
2022/01/25 00:32:01;;;;;;;12.40;9.38;;;;;;;4.53;87.35;102583.44;5027916;28;20029;-21
2022/01/25 00:34:26;;;;;;;14.30;9.88;;;;;;;4.53;87.55;102580.81;5025072;28;20033;-21
2022/01/25 00:36:52;;;;;;;15.02;10.63;;;;;;;4.53;87.83;102580.81;5026346;28;20108;-21
2022/01/25 00:39:17;;;;;;;13.88;9.45;;;;;;;4.52;87.81;102579.00;5022404;28;20028;-24
2022/01/25 00:41:43;;;;;;;13.00;9.75;;;;;;;4.52;87.56;102579.00;5021823;28;20493;-22
2022/01/25 00:44:11;;;;;;;14.40;10.40;;;;;;;4.51;87.70;102564.16;5027534;28;21465;-22
2022/01/25 00:46:37;;;;;;;15.77;10.30;;;;;;;4.51;87.82;102569.38;5024847;28;20024;-21
2022/01/25 00:49:03;;;;;;;14.40;10.90;;;;;;;4.51;87.54;102577.22;5026078;28;20026;-21
2022/01/25 00:56:37;;;;;;;13.77;10.00;;;;;;;4.48;87.88;102570.13;5023701;28;20501;-22
2022/01/25 00:59:05;;;;;;;14.63;10.70;;;;;;;4.47;87.62;102561.38;5023943;28;20033;-26
2022/01/25 01:01:32;;;;;;;13.50;10.00;;;;;;;4.48;87.25;102562.28;5027571;28;20022;-23
2022/01/25 01:03:58;;;;;;;17.63;10.77;;;;;;;4.45;87.44;102557.81;5026432;28;20021;-22
2022/01/25 01:06:24;;;;;;;15.07;10.57;;;;;;;4.45;87.50;102555.22;5027638;28;20025;-21
2022/01/25 01:08:51;;;;;;;14.70;9.73;;;;;;;4.45;87.27;102556.91;5025945;28;20026;-21
2022/01/25 01:11:25;;;;;;;15.00;10.10;;;;;;;4.45;87.84;102568.28;5026159;28;20048;-21
2022/01/25 01:30:22;;;;;;;17.08;10.27;;;;;;;4.41;87.30;102555.91;5025797;28;20086;-23
2022/01/25 01:48:50;;;;;;;14.80;9.43;;;;;;;4.39;87.70;102538.34;5023677;28;19920;-24
2022/01/25 01:51:18;;;;;;;15.55;10.65;;;;;;;4.38;87.13;102528.72;5023458;28;20048;-23
2022/01/25 01:53:45;;;;;;;16.45;10.43;;;;;;;4.37;87.21;102533.06;5024298;28;20024;-21
2022/01/25 01:56:11;;;;;;;14.00;9.63;;;;;;;4.38;87.45;102544.38;5023820;28;20025;-21
2022/01/25 01:58:37;;;;;;;14.63;10.23;;;;;;;4.36;87.84;102534.78;5025120;28;20175;-21
2022/01/25 02:01:06;;;;;;;15.38;10.35;;;;;;;4.36;87.66;102531.25;5023610;28;20021;-21
2022/01/25 02:03:32;;;;;;;13.77;10.02;;;;;;;4.35;87.40;102529.47;5023777;28;20033;-29
2022/01/25 02:05:58;;;;;;;14.95;9.95;;;;;;;4.35;87.53;102521.63;5025346;28;20025;-21
2022/01/25 02:08:24;;;;;;;14.32;10.18;;;;;;;4.35;87.63;102525.16;5023805;28;20029;-23
2022/01/25 02:10:50;;;;;;;15.15;9.95;;;;;;;4.34;87.32;102517.25;5025508;28;20026;-21
2022/01/25 02:13:15;;;;;;;14.57;10.48;;;;;;;4.33;87.89;102507.59;5024321;28;20021;-21
2022/01/25 02:15:45;;;;;;;16.90;10.43;;;;;;;4.34;87.70;102512.00;5025873;28;20017;-23
2022/01/25 02:23:39;;;;;;;15.68;10.38;;;;;;;4.32;87.82;102518.88;5024000;28;20044;-21
2022/01/25 02:26:06;;;;;;;14.90;10.93;;;;;;;4.32;87.76;102513.66;5025224;28;20033;-25
2022/01/25 02:28:35;;;;;;;15.60;10.73;;;;;;;4.30;87.08;102510.09;5026706;28;20477;-23
2022/01/25 02:31:01;;;;;;;15.85;11.20;;;;;;;4.30;87.51;102510.09;5023587;28;20049;-21
2022/01/25 02:33:28;;;;;;;17.08;11.70;;;;;;;4.29;87.47;102505.66;5025006;28;20048;-21
2022/01/25 02:35:55;;;;;;;14.38;10.20;;;;;;;4.29;87.50;102500.44;5023700;28;20053;-23
2022/01/25 02:38:26;;;;;;;16.23;10.88;;;;;;;4.28;87.47;102507.41;5026740;28;20030;-21
2022/01/25 02:40:52;;;;;;;17.05;10.68;;;;;;;4.28;87.55;102503.88;5021638;28;20599;-23
2022/01/25 02:43:20;;;;;;;15.55;10.95;;;;;;;4.29;87.13;102505.66;5025222;28;20025;-21
2022/01/25 02:46:06;;;;;;;17.10;11.32;;;;;;;4.27;87.57;102500.38;5025827;28;20029;-21
2022/01/25 02:48:47;;;;;;;16.13;10.85;;;;;;;4.27;87.34;102497.75;5027229;28;20033;-24
2022/01/25 02:51:12;;;;;;;17.47;10.60;;;;;;;4.26;87.03;102495.97;5026890;28;20022;-21
2022/01/25 02:53:38;;;;;;;14.77;10.30;;;;;;;4.26;87.73;102492.50;5027242;28;20276;-21
2022/01/25 02:56:04;;;;;;;19.90;10.90;;;;;;;4.24;87.15;102495.91;5027442;28;20736;-21
2022/01/25 02:58:30;;;;;;;16.50;10.82;;;;;;;4.23;87.02;102499.34;5024362;28;20512;-22
2022/01/25 03:00:55;;;;;;;13.40;9.57;;;;;;;4.21;87.20;102493.13;5029203;28;20067;-26
2022/01/25 03:03:21;;;;;;;17.88;11.60;;;;;;;4.22;87.74;102497.56;5029119;28;20037;-24
2022/01/25 03:05:47;;;;;;;14.48;9.95;;;;;;;4.21;87.38;102498.34;5027760;28;20026;-21
2022/01/25 03:08:14;;;;;;;14.40;10.15;;;;;;;4.22;87.47;102492.34;5027462;28;20096;-21
2022/01/25 03:10:43;;;;;;;17.70;11.02;;;;;;;4.21;87.67;102494.88;5024704;28;20077;-22
2022/01/25 03:13:14;;;;;;;14.23;9.82;;;;;;;4.21;87.67;102500.09;5028771;28;20398;-25
2022/01/25 03:18:40;;;;;;;13.05;9.75;;;;;;;4.18;87.65;102493.03;5028536;28;20401;-21
2022/01/25 03:21:16;;;;;;;17.13;10.23;;;;;;;4.19;87.23;102497.41;5028049;28;20494;-21
2022/01/25 03:23:43;;;;;;;14.02;10.20;;;;;;;4.17;87.10;102487.72;5029833;28;20483;-23
2022/01/25 03:26:09;;;;;;;14.30;10.25;;;;;;;4.18;87.11;102485.19;5025261;28;20068;-21
2022/01/25 03:28:35;;;;;;;14.57;10.45;;;;;;;4.18;87.30;102492.13;5026006;28;20034;-21
2022/01/25 03:31:00;;;;;;;12.82;9.07;;;;;;;4.17;87.28;102480.75;5026362;28;20502;-25
2022/01/25 03:33:26;;;;;;;14.05;9.95;;;;;;;4.17;87.37;102477.28;5026278;28;20026;-23
2022/01/25 03:35:52;;;;;;;17.77;10.00;;;;;;;4.16;87.77;102486.81;5029256;28;20022;-21
2022/01/25 03:38:18;;;;;;;14.10;9.88;;;;;;;4.15;86.88;102490.25;5027433;28;20033;-21
2022/01/25 03:40:45;;;;;;;13.57;10.07;;;;;;;4.16;87.53;102486.81;5029152;28;20037;-21
2022/01/25 03:43:11;;;;;;;13.85;10.18;;;;;;;4.15;87.11;102489.34;5023287;28;20060;-21
2022/01/25 03:45:40;;;;;;;15.43;10.73;;;;;;;4.15;87.06;102486.75;5024983;28;20601;-23
2022/01/25 03:50:40;;;;;;;;;;;;;;;4.13;87.27;102491.88;5027822;28;20030;-21
2022/01/25 03:53:07;;;;;;;14.00;9.52;;;;;;;4.12;87.41;102484.88;5027503;28;19921;-21
2022/01/25 03:55:33;;;;;;;14.15;9.50;;;;;;;4.13;87.64;102491.00;5028423;28;20044;-24
2022/01/25 03:57:59;;;;;;;15.73;10.32;;;;;;;4.11;87.79;102493.56;5019173;28;20533;-21
2022/01/25 04:00:24;;;;;;;13.38;8.93;;;;;;;4.13;87.17;102486.66;5023204;28;20088;-23
2022/01/25 04:03:05;;;;;;;15.35;9.95;;;;;;;4.11;86.97;102489.19;5028297;28;20060;-21
2022/01/25 04:05:47;;;;;;;15.23;9.55;;;;;;;4.10;87.42;102479.59;5024050;28;20060;-22
2022/01/25 04:08:14;;;;;;;14.90;9.90;;;;;;;4.09;87.51;102479.50;5027761;28;20032;-21
2022/01/25 04:10:40;;;;;;;13.50;9.52;;;;;;;4.09;87.31;102479.50;5028586;28;20051;-25
2022/01/25 04:13:07;;;;;;;14.00;9.82;;;;;;;4.09;87.71;102474.28;5028519;28;20036;-21
2022/01/25 04:15:33;;;;;;;12.70;8.77;;;;;;;4.08;87.75;102473.41;5026260;28;20037;-21
2022/01/25 04:18:14;;;;;;;15.13;8.70;;;;;;;4.07;87.34;102468.13;5023298;28;20393;-21
2022/01/25 04:20:43;;;;;;;14.60;8.80;;;;;;;4.08;87.14;102467.28;5026365;28;20173;-23
2022/01/25 04:25:53;;;;;;;12.77;8.52;;;;;;;4.08;87.38;102472.50;5028367;28;20102;-21
2022/01/25 04:28:19;;;;;;;12.95;9.05;;;;;;;4.06;87.46;102468.91;5028489;28;20025;-26
2022/01/25 04:30:44;;;;;;;10.68;8.18;;;;;;;4.06;87.63;102466.31;5023755;28;20116;-24
2022/01/25 04:33:19;;;;;;;11.93;8.80;;;;;;;4.05;87.14;102461.91;5029261;28;20025;-22
2022/01/25 04:35:56;;;;;;;12.32;9.10;;;;;;;4.05;87.53;102461.91;5025079;28;20033;-22
2022/01/25 04:49:24;;;;;;;12.82;8.00;;;;;;;4.02;87.05;102451.31;5026393;28;20091;-22
2022/01/25 04:51:59;;;;;;;11.32;7.82;;;;;;;4.01;87.39;102462.59;5025554;28;20024;-21
2022/01/25 04:59:31;;;;;;;10.75;7.50;;;;;;;4.02;87.69;102467.00;5023373;28;20036;-21
2022/01/25 05:02:04;;;;;;;11.05;7.50;;;;;;;4.00;87.81;102468.66;5024928;28;20034;-21
2022/01/25 05:04:36;;;;;;;8.85;7.07;;;;;;;4.00;87.46;102471.25;5025374;28;20025;-21
2022/01/25 05:10:01;;;;;;;8.95;6.65;;;;;;;3.98;87.09;102466.84;5023933;28;20087;-23
2022/01/25 05:12:47;;;;;;;11.30;6.30;;;;;;;3.98;87.50;102473.78;5026939;28;20053;-21
2022/01/25 05:17:47;;;;;;;10.07;6.88;;;;;;;3.97;87.30;102483.34;5023699;28;20029;-23
2022/01/25 05:22:56;;;;;;;10.85;7.15;;;;;;;3.96;87.41;102475.44;5026061;28;20028;-22
2022/01/25 05:25:22;;;;;;;9.95;6.32;;;;;;;3.96;87.44;102481.56;5028203;28;20377;-22
2022/01/25 05:27:47;;;;;;;10.13;6.82;;;;;;;3.95;87.15;102477.16;5026186;28;20497;-21
2022/01/25 05:30:13;;;;;;;9.70;6.93;;;;;;;3.95;87.57;102477.16;5027329;28;20600;-22
2022/01/25 05:32:39;;;;;;;9.32;6.30;;;;;;;3.94;87.88;102477.97;5024376;28;20029;-22
2022/01/25 05:35:05;;;;;;;10.00;7.00;;;;;;;3.94;87.55;102469.25;5025931;28;20033;-21
2022/01/25 05:37:39;;;;;;;10.30;6.25;;;;;;;3.94;87.10;102472.75;5025359;28;20053;-22
2022/01/25 05:40:09;;;;;;;10.68;6.40;;;;;;;3.93;87.47;102470.06;5026296;28;20116;-23
2022/01/25 05:45:38;;;;;;;11.82;8.05;;;;;;;3.92;87.57;102477.00;5023677;28;20572;-22
2022/01/25 05:48:03;;;;;;;7.57;6.10;;;;;;;3.91;87.29;102475.22;5021448;28;20390;-23
2022/01/25 05:50:29;;;;;;;9.43;6.80;;;;;;;3.91;87.07;102474.31;5025381;28;20029;-21
2022/01/25 05:52:55;;;;;;;8.98;6.30;;;;;;;3.91;87.58;102484.75;5027782;28;20026;-25
2022/01/25 05:55:20;;;;;;;13.02;7.25;;;;;;;3.89;87.17;102484.69;5023452;28;20444;-23
2022/01/25 05:57:46;;;;;;;10.80;6.57;;;;;;;3.89;87.49;102482.06;5022137;28;20030;-23
2022/01/25 06:00:11;;;;;;;9.35;6.28;;;;;;;3.89;87.53;102489.00;5021752;28;20034;-21
2022/01/25 06:02:37;;;;;;;10.68;7.18;;;;;;;3.87;87.14;102483.72;5025506;28;20025;-24
2022/01/25 06:05:04;;;;;;;12.70;7.13;;;;;;;3.89;87.33;102483.78;5021500;28;20030;-21
2022/01/25 06:07:30;;;;;;;9.65;6.30;;;;;;;3.87;87.29;102483.72;5025350;28;20409;-21
2022/01/25 06:09:55;;;;;;;9.88;6.78;;;;;;;3.87;87.24;102481.09;5023134;28;20215;-22
2022/01/25 06:12:21;;;;;;;9.40;6.47;;;;;;;3.87;87.58;102475.88;5022137;28;20024;-24
2022/01/25 06:14:46;;;;;;;8.88;6.50;;;;;;;3.87;87.62;102478.47;5026058;28;20036;-22
2022/01/25 06:17:12;;;;;;;9.05;6.40;;;;;;;3.86;87.48;102481.94;5023457;28;20032;-21
2022/01/25 06:19:38;;;;;;;10.38;7.07;;;;;;;3.87;87.66;102485.44;5022574;28;20549;-21
2022/01/25 06:22:03;;;;;;;12.77;7.40;;;;;;;3.85;87.30;102486.28;5024183;28;20401;-22
2022/01/25 06:24:29;;;;;;;11.73;7.18;;;;;;;3.84;87.24;102479.25;5027969;28;20029;-22
2022/01/25 06:26:54;;;;;;;10.90;8.27;;;;;;;3.84;87.32;102483.59;5022011;28;20104;-21
2022/01/25 06:29:20;;;;;;;12.40;8.10;;;;;;;3.84;87.21;102486.19;5017693;28;20322;-21
2022/01/25 06:31:47;;;;;;;12.30;8.68;;;;;;;3.83;87.46;102487.00;5021077;28;20108;-21
2022/01/25 06:34:14;;;;;;;12.70;8.82;;;;;;;3.83;87.31;102484.38;5029169;28;20021;-21
2022/01/25 06:36:39;;;;;;;15.65;9.10;;;;;;;3.82;87.54;102485.22;5023688;28;20391;-21
2022/01/25 06:39:05;;;;;;;13.10;8.32;;;;;;;3.82;87.77;102491.34;5018429;28;20021;-22
2022/01/25 06:41:33;;;;;;;15.18;10.50;;;;;;;3.82;87.49;102485.22;5018110;28;20460;-22
2022/01/25 06:43:59;;;;;;;15.02;9.60;;;;;;;3.81;87.12;102494.75;5023309;28;20084;-21
2022/01/25 06:46:24;;;;;;;15.50;8.77;;;;;;;3.80;87.40;102485.13;5024359;28;20305;-21
2022/01/25 06:48:50;;;;;;;15.00;9.52;;;;;;;3.79;87.32;102480.75;5023796;28;20017;-21
2022/01/25 06:51:15;;;;;;;15.93;10.18;;;;;;;3.79;87.77;102487.66;5026043;28;20370;-24
2022/01/25 06:53:41;;;;;;;14.25;9.30;;;;;;;3.79;87.21;102488.56;5022508;28;20544;-21
2022/01/25 06:56:06;;;;;;;14.88;9.65;;;;;;;3.77;87.26;102492.81;5022071;28;20064;-21
2022/01/25 06:58:33;;;;;;;16.77;10.10;;;;;;;3.78;87.80;102501.56;5025109;28;20061;-24
2022/01/25 07:00:58;;;;;;;15.02;10.93;;;;;;;3.78;87.37;102504.16;5024193;28;20104;-23
2022/01/25 07:03:24;;;;;;;17.20;10.45;;;;;;;3.77;87.21;102513.69;5018529;28;21300;-23
2022/01/25 07:05:49;;;;;;;18.20;11.10;;;;;;;3.76;87.20;102511.03;5023837;28;20079;-21
2022/01/25 07:08:15;;;;;;;17.73;10.65;;;;;;;3.75;87.65;102510.13;5025923;28;20084;-21
2022/01/25 07:10:41;;;;;;;19.95;12.25;;;;;;;3.75;87.07;102509.22;5025373;28;20503;-25
2022/01/25 07:13:06;;;;;;;16.60;11.63;;;;;;;3.75;87.62;102519.66;5023111;28;20040;-21
2022/01/25 07:15:32;;;;;;;20.05;12.52;;;;;;;3.75;86.98;102522.28;5023094;28;20529;-21
2022/01/25 07:17:58;;;;;;;18.02;11.30;;;;;;;3.72;87.26;102510.88;5022345;28;20038;-25
2022/01/25 07:20:24;;;;;;;18.13;11.55;;;;;;;3.72;87.62;102513.50;5023372;28;20030;-22
2022/01/25 07:22:51;;;;;;;17.90;11.05;;;;;;;3.72;86.95;102516.09;5018417;28;20029;-22
2022/01/25 07:25:16;;;;;;;20.85;12.65;;;;;;;3.72;87.71;102517.81;5026557;28;20469;-25
2022/01/25 07:27:42;;;;;;;19.23;11.80;;;;;;;3.71;87.65;102518.63;5023515;28;20039;-23
2022/01/25 07:30:08;;;;;;;19.65;12.63;;;;;;;3.70;87.74;102529.91;5022257;28;20156;-22
2022/01/25 07:32:33;;;;;;;23.05;12.15;;;;;;;3.70;87.09;102533.38;5022939;28;20025;-23
2022/01/25 07:34:59;;;;;;;19.45;11.80;;;;;;;3.70;87.60;102532.50;5024463;28;20057;-21
2022/01/25 07:37:24;;;;;;;20.30;12.20;;;;;;;3.68;87.47;102524.59;5021024;28;20079;-21
2022/01/25 07:39:50;;;;;;;20.55;12.88;;;;;;;3.69;87.11;102531.59;5024600;28;20026;-22
2022/01/25 07:42:17;;;;;;;20.05;12.40;;;;;;;3.68;86.80;102531.53;5024632;28;20489;-22
2022/01/25 07:44:44;;;;;;;20.08;11.45;;;;;;;3.66;87.12;102526.22;5024374;28;20041;-23
2022/01/25 07:47:10;;;;;;;19.13;12.35;;;;;;;3.66;87.04;102526.22;5017862;28;20029;-24
2022/01/25 07:49:36;;;;;;;18.80;11.95;;;;;;;3.64;86.36;102522.66;5023488;28;20117;-22
2022/01/25 07:52:03;;;;;;;19.95;12.20;;;;;;;3.63;86.62;102526.06;5025808;28;20753;-21
2022/01/25 07:54:28;;;;;;;19.70;12.75;;;;;;;3.64;87.03;102535.72;5026996;28;20021;-21
2022/01/25 07:56:54;;;;;;;23.38;14.05;;;;;;;3.63;87.01;102526.06;5023645;28;20037;-24
2022/01/25 07:59:20;;;;;;;22.95;12.88;;;;;;;3.62;86.88;102534.72;5029097;28;20057;-22
2022/01/25 08:01:46;;;;;;;21.35;11.88;;;;;;;3.61;86.76;102538.16;5026811;28;20021;-21
2022/01/25 08:04:13;;;;;;;21.10;13.52;;;;;;;3.60;86.75;102544.19;5023626;28;20030;-22
2022/01/25 08:06:39;;;;;;;25.45;14.07;;;;;;;3.59;86.99;102542.41;5025741;28;20184;-22
2022/01/25 08:09:06;;;;;;;21.35;13.05;;;;;;;3.58;86.98;102544.13;5029242;28;20103;-23
2022/01/25 08:11:32;;;;;;;21.33;13.30;;;;;;;3.57;86.94;102542.31;5024337;28;20021;-22
2022/01/25 08:14:14;;;;;;;20.92;13.25;;;;;;;3.59;86.85;102542.41;5025782;28;20099;-26
2022/01/25 08:16:41;;;;;;;21.88;13.52;;;;;;;3.57;86.57;102547.53;5024890;28;20134;-22
2022/01/25 08:19:08;;;;;;;20.70;13.60;;;;;;;3.56;87.08;102534.41;5027901;28;20029;-23
2022/01/25 08:21:33;;;;;;;22.63;13.93;;;;;;;3.54;87.19;102534.31;5027321;28;20053;-24
2022/01/25 08:23:59;;;;;;;21.15;12.88;;;;;;;3.55;87.03;102543.06;5028720;28;20064;-21
2022/01/25 08:26:25;;;;;;;20.45;12.90;;;;;;;3.55;87.10;102535.25;5029130;28;20037;-22
2022/01/25 08:28:50;;;;;;;25.33;13.35;;;;;;;3.54;87.06;102534.31;5027142;28;20071;-22
2022/01/25 08:31:16;;;;;;;24.10;13.80;;;;;;;3.53;86.71;102534.28;5023429;28;20033;-22
2022/01/25 08:33:41;;;;;;;22.15;12.27;;;;;;;3.55;87.23;102537.84;5028585;28;20112;-21
2022/01/25 08:36:07;;;;;;;19.67;12.32;;;;;;;3.54;87.15;102536.06;5027667;28;20029;-22
2022/01/25 08:38:33;;;;;;;23.90;14.52;;;;;;;3.54;87.10;102536.06;5026565;28;20099;-21
2022/01/25 08:40:58;;;;;;;22.02;13.70;;;;;;;3.52;87.43;102537.69;5025568;28;20035;-22
2022/01/25 08:43:24;;;;;;;19.52;11.75;;;;;;;3.54;87.20;102546.50;5024632;28;20041;-22
2022/01/25 08:45:50;;;;;;;22.80;13.65;;;;;;;3.51;87.00;102542.03;5026419;28;20109;-22
2022/01/25 08:48:16;;;;;;;20.17;12.35;;;;;;;3.52;87.31;102540.28;5026482;28;20048;-21
2022/01/25 08:50:41;;;;;;;21.98;13.35;;;;;;;3.51;87.11;102542.03;5027241;28;20432;-23
2022/01/25 08:53:09;;;;;;;24.60;15.20;;;;;;;3.51;87.18;102542.03;5027200;28;20088;-24
2022/01/25 08:55:34;;;;;;;21.60;14.05;;;;;;;3.50;86.95;102541.94;5026500;28;20044;-21
2022/01/25 08:58:00;;;;;;;23.95;16.02;;;;;;;3.50;87.24;102542.81;5024649;28;20017;-22
2022/01/25 09:00:26;;;;;;;22.48;14.65;;;;;;;3.50;87.07;102547.16;5025143;28;20026;-22
2022/01/25 09:02:52;;;;;;;25.38;15.07;;;;;;;3.49;86.96;102548.88;5026480;28;21328;-21
2022/01/25 09:05:17;;;;;;;25.10;16.13;;;;;;;3.49;87.04;102548.88;5018995;28;20021;-24
2022/01/25 09:07:44;;;;;;;25.35;15.70;;;;;;;3.49;87.06;102545.34;5024597;28;20045;-23
2022/01/25 09:10:09;;;;;;;28.20;16.13;;;;;;;3.49;87.27;102558.41;5024309;28;20536;-22
2022/01/25 09:12:35;;;;;;;26.15;15.90;;;;;;;3.48;86.94;102541.88;5019659;28;20030;-22
2022/01/25 09:15:01;;;;;;;27.23;15.90;;;;;;;3.47;87.21;102546.19;5022933;28;20117;-22
2022/01/25 09:17:26;;;;;;;25.80;15.52;;;;;;;3.47;86.91;102556.63;5029327;28;20021;-22
2022/01/25 09:19:52;;;;;;;28.83;17.10;;;;;;;3.47;86.95;102551.41;5029528;28;20136;-23
2022/01/25 09:22:19;;;;;;;27.40;16.45;;;;;;;3.47;86.93;102555.75;5031682;28;20040;-23
2022/01/25 09:24:45;;;;;;;26.85;16.30;;;;;;;3.46;87.30;102554.84;5030161;28;20080;-22
2022/01/25 09:27:10;;;;;;;30.00;17.05;;;;;;;3.47;87.03;102551.41;5029657;28;20053;-22
2022/01/25 09:29:36;;;;;;;26.25;15.73;;;;;;;3.46;86.92;102549.63;5023072;28;20108;-21
2022/01/25 09:32:02;;;;;;;29.77;16.70;;;;;;;3.47;86.96;102560.97;5022494;28;20600;-21
2022/01/25 09:34:29;;;;;;;31.40;17.33;;;;;;;3.46;86.75;102556.53;5025258;28;20609;-22
2022/01/25 09:36:55;;;;;;;28.63;16.98;;;;;;;3.46;86.83;102554.84;5025323;28;20028;-22
2022/01/25 09:39:21;;;;;;;33.38;18.27;;;;;;;3.46;87.35;102552.22;5020872;28;21248;-25
2022/01/25 09:41:47;;;;;;;30.33;18.52;;;;;;;3.46;87.27;102549.63;5022710;28;20402;-23
2022/01/25 09:44:13;;;;;;;33.28;18.17;;;;;;;3.47;86.75;102550.53;5025403;28;20021;-23
2022/01/25 09:46:39;;;;;;;30.40;16.90;;;;;;;3.45;87.32;102549.53;5023973;28;20044;-22
2022/01/25 09:49:05;;;;;;;36.97;20.58;;;;;;;3.46;87.39;102548.72;5021216;28;20029;-26
2022/01/25 09:51:31;;;;;;;32.20;18.15;;;;;;;3.47;86.93;102555.75;5023115;28;20504;-23
2022/01/25 09:53:57;;;;;;;31.63;17.35;;;;;;;3.45;87.01;102547.84;5025781;28;20021;-24
2022/01/25 09:56:23;;;;;;;35.83;19.17;;;;;;;3.45;87.20;102540.00;5022548;28;20036;-23
2022/01/25 09:58:49;;;;;;;35.90;19.23;;;;;;;3.46;86.71;102543.50;5025640;28;20442;-22
2022/01/25 10:01:16;;;;;;;34.20;19.00;;;;;;;3.44;87.45;102538.19;5025718;28;20465;-22
2022/01/25 10:03:43;;;;;;;32.67;18.05;;;;;;;3.44;86.93;102540.81;5022802;28;20149;-26
2022/01/25 10:06:15;;;;;;;32.53;18.48;;;;;;;3.45;86.94;102546.94;5023360;28;20031;-22
2022/01/25 10:08:40;;;;;;;32.85;17.95;;;;;;;3.43;87.38;102532.91;5024562;28;20013;-22
2022/01/25 10:11:11;;;;;;;36.30;20.50;;;;;;;3.43;87.33;102536.41;5026409;28;20037;-23
2022/01/25 10:13:45;;;;;;;37.47;19.90;;;;;;;3.44;87.17;102539.94;5025105;28;20025;-21
2022/01/25 10:16:17;;;;;;;34.95;19.45;;;;;;;3.44;87.19;102545.16;5024504;28;20033;-21
2022/01/25 10:18:56;;;;;;;34.90;18.13;;;;;;;3.44;87.04;102553.84;5024831;28;20044;-21
2022/01/25 10:21:22;;;;;;;36.88;18.50;;;;;;;3.44;86.96;102552.97;5019500;28;20441;-24
2022/01/25 10:24:02;;;;;;;34.88;20.95;;;;;;;3.42;86.67;102552.88;5021274;28;20025;-22
2022/01/25 10:27:01;;;;;;;34.58;19.58;;;;;;;3.41;86.51;102553.72;5024805;28;20117;-22
2022/01/25 10:29:32;;;;;;;33.00;17.83;;;;;;;3.42;86.72;102552.88;5017889;28;20033;-21
2022/01/25 10:32:01;;;;;;;34.85;19.05;;;;;;;3.44;87.10;102547.75;5021962;28;20593;-22
2022/01/25 10:34:36;;;;;;;37.83;20.75;;;;;;;3.42;87.15;102546.75;5022459;28;20028;-22
2022/01/25 10:37:10;;;;;;;35.72;18.13;;;;;;;3.42;86.69;102541.56;5021967;28;20025;-24
2022/01/25 10:39:39;;;;;;;41.33;20.77;;;;;;;3.42;86.80;102549.38;5022354;28;20022;-22
2022/01/25 10:42:09;;;;;;;42.95;20.58;;;;;;;3.42;86.51;102544.16;5018566;28;20073;-23
2022/01/25 10:44:49;;;;;;;36.88;19.38;;;;;;;3.42;87.05;102536.31;5022462;28;20409;-25
2022/01/25 10:47:15;;;;;;;35.55;19.63;;;;;;;3.42;86.66;102544.16;5023029;28;20029;-21
2022/01/25 10:49:49;;;;;;;33.70;18.42;;;;;;;3.41;86.56;102535.47;5025593;28;20490;-23
2022/01/25 10:52:25;;;;;;;39.10;20.00;;;;;;;3.40;86.54;102533.63;5021166;28;20030;-22
2022/01/25 10:54:51;;;;;;;37.35;21.23;;;;;;;3.40;86.69;102531.03;5021521;28;20513;-22
2022/01/25 10:57:19;;;;;;;34.95;18.63;;;;;;;3.40;86.83;102541.47;5024149;28;20026;-22
2022/01/25 10:59:57;;;;;;;34.83;20.20;;;;;;;3.41;86.81;102539.78;5023239;28;20498;-22
2022/01/25 11:02:22;;;;;;;38.70;21.30;;;;;;;3.40;86.18;102533.63;5026244;28;20090;-24
2022/01/25 11:04:48;;;;;;;38.00;19.08;;;;;;;3.41;86.79;102534.56;5023874;28;20021;-24
2022/01/25 11:07:13;;;;;;;38.55;20.17;;;;;;;3.41;86.59;102526.72;5020834;28;20401;-23
2022/01/25 11:09:44;;;;;;;39.85;20.00;;;;;;;3.41;86.77;102529.34;5029826;28;20118;-22
2022/01/25 11:12:14;;;;;;;38.42;21.42;;;;;;;3.39;86.83;102521.44;5024772;28;20032;-22
2022/01/25 11:14:57;;;;;;;37.25;18.52;;;;;;;3.40;86.68;102519.72;5027287;28;20029;-22
2022/01/25 11:17:33;;;;;;;39.50;20.30;;;;;;;3.41;86.55;102524.13;5027891;28;20031;-22
2022/01/25 11:20:00;;;;;;;35.63;19.88;;;;;;;3.40;86.85;102517.13;5027132;28;20128;-23
2022/01/25 11:22:27;;;;;;;38.92;20.90;;;;;;;3.41;86.49;102521.50;5027483;28;20026;-22
2022/01/25 11:24:59;;;;;;;43.00;21.55;;;;;;;3.41;86.12;102518.91;5030331;28;20064;-24
2022/01/25 11:27:25;;;;;;;;;;;;;;;3.41;86.65;102511.06;5024992;28;20025;-23
2022/01/25 11:29:52;;;;;;;40.72;20.10;;;;;;;3.40;86.90;102509.28;5024577;28;19913;-22
2022/01/25 11:32:23;;;;;;;41.33;18.55;;;;;;;3.40;86.73;102506.69;5025337;28;20571;-21
2022/01/25 11:34:50;;;;;;;39.95;20.92;;;;;;;3.40;87.00;102512.78;5022867;28;20450;-23
2022/01/25 11:37:16;;;;;;;37.50;19.38;;;;;;;3.39;86.66;102508.38;5022769;28;20045;-25
2022/01/25 11:39:44;;;;;;;38.15;20.05;;;;;;;3.40;86.50;102507.56;5026632;28;20040;-22
2022/01/25 11:42:17;;;;;;;40.40;20.30;;;;;;;3.40;86.65;102504.06;5019511;28;20404;-23
2022/01/25 11:44:56;;;;;;;39.00;18.92;;;;;;;3.40;86.56;102512.78;5020891;28;20030;-24
2022/01/25 11:47:34;;;;;;;33.25;18.02;;;;;;;3.40;86.91;102512.78;5024264;28;20033;-22
2022/01/25 11:50:06;;;;;;;38.97;18.92;;;;;;;3.40;86.95;102499.72;5023193;28;20025;-22
2022/01/25 11:52:33;;;;;;;42.78;20.23;;;;;;;3.40;86.55;102502.34;5027084;28;20056;-22
2022/01/25 11:55:26;;;;;;;39.92;19.75;;;;;;;3.39;86.77;102500.56;5024692;28;20138;-21
2022/01/25 11:57:52;;;;;;;34.28;18.60;;;;;;;3.41;86.44;102495.41;5020722;28;20498;-22
2022/01/25 12:00:20;;;;;;;39.42;20.02;;;;;;;3.40;86.94;102499.72;5024193;28;20568;-25
2022/01/25 12:02:52;;;;;;;35.53;19.30;;;;;;;3.40;86.49;102485.81;5022830;28;20040;-23
2022/01/25 12:05:27;;;;;;;40.70;20.92;;;;;;;3.41;86.40;102482.38;5025410;28;20060;-25
2022/01/25 12:08:42;;;;;;;36.97;19.25;;;;;;;3.41;86.55;102484.97;5020485;28;20068;-23
2022/01/25 12:11:33;;;;;;;38.83;19.95;;;;;;;3.41;86.67;102479.75;4999461;28;20052;-22
2022/01/25 12:14:41;;;;;;;38.50;18.77;;;;;;;3.41;86.91;102480.69;5025548;28;20033;-23
2022/01/25 12:17:11;;;;;;;38.97;18.40;;;;;;;3.40;86.52;102476.25;5021833;28;20037;-22
2022/01/25 12:19:54;;;;;;;42.88;20.75;;;;;;;3.39;86.91;102474.47;5019748;28;20574;-22
2022/01/25 12:25:19;;;;;;;41.15;19.88;;;;;;;3.41;87.00;102471.94;5027915;28;20025;-22
2022/01/25 12:28:07;;;;;;;44.20;20.25;;;;;;;3.40;86.68;102468.44;5026538;28;20068;-24
2022/01/25 12:30:32;;;;;;;44.20;20.20;;;;;;;3.41;86.82;102466.72;5023916;28;20029;-22
2022/01/25 12:33:23;;;;;;;38.03;19.92;;;;;;;3.41;87.08;102467.63;5024868;28;20042;-22
2022/01/25 12:35:54;;;;;;;36.78;18.13;;;;;;;3.42;86.98;102478.94;5024393;28;20512;-24
2022/01/25 12:38:43;;;;;;;33.78;17.88;;;;;;;3.41;86.70;102470.25;5025897;28;20044;-21
2022/01/25 12:41:13;;;;;;;40.03;18.42;;;;;;;3.41;86.74;102465.03;5025159;28;20438;-22
2022/01/25 12:43:40;;;;;;;39.17;19.55;;;;;;;3.42;87.10;102458.06;5024196;28;20393;-22
2022/01/25 12:46:10;;;;;;;34.97;17.73;;;;;;;3.42;87.08;102450.25;5022402;28;20041;-22
2022/01/25 12:48:46;;;;;;;38.08;18.20;;;;;;;3.42;86.93;102453.75;5021736;28;20037;-22
2022/01/25 12:51:20;;;;;;;37.92;20.08;;;;;;;3.42;86.67;102452.84;5019934;28;20029;-23
2022/01/25 12:53:48;;;;;;;35.28;17.38;;;;;;;3.41;86.69;102451.97;5019494;28;20485;-22
2022/01/25 12:56:18;;;;;;;31.10;16.85;;;;;;;3.42;87.05;102456.38;5019061;28;20021;-21
2022/01/25 12:58:46;;;;;;;32.63;16.88;;;;;;;3.42;86.92;102453.75;5024221;28;20045;-25
2022/01/25 13:01:15;;;;;;;39.38;19.52;;;;;;;3.40;87.17;102442.34;5024680;28;20099;-22
2022/01/25 13:03:49;;;;;;;35.92;17.40;;;;;;;3.42;87.24;102450.25;5022252;28;20033;-22
2022/01/25 13:06:29;;;;;;;35.83;19.13;;;;;;;3.42;86.91;102443.31;5024013;28;20040;-22
2022/01/25 13:09:26;;;;;;;35.55;17.80;;;;;;;3.42;86.89;102442.41;5020392;28;20021;-23
2022/01/25 13:17:17;;;;;;;36.85;17.83;;;;;;;3.40;86.89;102424.09;5023305;28;20034;-22
2022/01/25 13:19:57;;;;;;;32.25;16.42;;;;;;;3.41;86.76;102431.09;5022792;28;20031;-26